sensor_id;sensor_type;location;lat;lon;timestamp;P1;durP1;ratioP1;P2;durP2;ratioP2
2362;SDS011;64265;51.664;7.626;2024-03-23T00:55:35;5.90;;;4.80;;
2362;SDS011;64265;51.664;7.626;2024-03-23T00:58:02;4.32;;;3.92;;
2362;SDS011;64265;51.664;7.626;2024-03-23T01:00:28;4.95;;;4.50;;
2362;SDS011;64265;51.664;7.626;2024-03-23T01:02:55;4.47;;;4.07;;
2362;SDS011;64265;51.664;7.626;2024-03-23T01:05:20;5.73;;;5.17;;
2362;SDS011;64265;51.664;7.626;2024-03-23T01:07:47;6.00;;;4.13;;
2362;SDS011;64265;51.664;7.626;2024-03-23T01:10:13;4.97;;;4.23;;
2362;SDS011;64265;51.664;7.626;2024-03-23T01:12:41;5.32;;;4.32;;
2362;SDS011;64265;51.664;7.626;2024-03-23T01:15:07;4.85;;;4.35;;
2362;SDS011;64265;51.664;7.626;2024-03-23T01:17:34;4.40;;;4.00;;
2362;SDS011;64265;51.664;7.626;2024-03-23T01:20:00;4.20;;;3.57;;
2362;SDS011;64265;51.664;7.626;2024-03-23T01:22:26;4.07;;;3.73;;
2362;SDS011;64265;51.664;7.626;2024-03-23T01:24:52;4.27;;;3.87;;
2362;SDS011;64265;51.664;7.626;2024-03-23T01:27:19;4.35;;;3.95;;
2362;SDS011;64265;51.664;7.626;2024-03-23T01:29:46;4.20;;;3.90;;
2362;SDS011;64265;51.664;7.626;2024-03-23T01:32:13;3.90;;;3.60;;
2362;SDS011;64265;51.664;7.626;2024-03-23T01:34:38;4.43;;;4.03;;
2362;SDS011;64265;51.664;7.626;2024-03-23T01:37:05;4.05;;;3.75;;
2362;SDS011;64265;51.664;7.626;2024-03-23T01:39:31;3.80;;;3.43;;
2362;SDS011;64265;51.664;7.626;2024-03-23T01:41:57;4.30;;;3.80;;
2362;SDS011;64265;51.664;7.626;2024-03-23T01:44:23;4.87;;;4.40;;
2362;SDS011;64265;51.664;7.626;2024-03-23T01:46:51;4.72;;;4.32;;
2362;SDS011;64265;51.664;7.626;2024-03-23T01:49:17;5.00;;;4.30;;
2362;SDS011;64265;51.664;7.626;2024-03-23T01:51:44;5.50;;;4.47;;
2362;SDS011;64265;51.664;7.626;2024-03-23T01:54:10;4.38;;;4.05;;
2362;SDS011;64265;51.664;7.626;2024-03-23T01:56:37;4.50;;;3.83;;
2362;SDS011;64265;51.664;7.626;2024-03-23T01:59:03;4.10;;;3.80;;
2362;SDS011;64265;51.664;7.626;2024-03-23T02:01:30;3.88;;;3.47;;
2362;SDS011;64265;51.664;7.626;2024-03-23T02:03:57;4.00;;;3.70;;
2362;SDS011;64265;51.664;7.626;2024-03-23T02:06:24;5.13;;;4.63;;
2362;SDS011;64265;51.664;7.626;2024-03-23T02:08:50;5.15;;;3.72;;
2362;SDS011;64265;51.664;7.626;2024-03-23T02:11:17;4.60;;;4.20;;
2362;SDS011;64265;51.664;7.626;2024-03-23T02:13:43;4.27;;;3.73;;
2362;SDS011;64265;51.664;7.626;2024-03-23T02:16:10;4.35;;;3.78;;
2362;SDS011;64265;51.664;7.626;2024-03-23T02:18:35;3.83;;;3.43;;
2362;SDS011;64265;51.664;7.626;2024-03-23T02:21:04;3.95;;;3.65;;
2362;SDS011;64265;51.664;7.626;2024-03-23T02:23:31;4.18;;;3.80;;
2362;SDS011;64265;51.664;7.626;2024-03-23T02:25:58;3.75;;;3.45;;
2362;SDS011;64265;51.664;7.626;2024-03-23T02:28:24;4.30;;;3.30;;
2362;SDS011;64265;51.664;7.626;2024-03-23T02:30:50;4.00;;;3.70;;
2362;SDS011;64265;51.664;7.626;2024-03-23T02:33:16;4.20;;;3.50;;
2362;SDS011;64265;51.664;7.626;2024-03-23T02:35:43;3.55;;;3.30;;
2362;SDS011;64265;51.664;7.626;2024-03-23T02:38:10;4.60;;;4.20;;
2362;SDS011;64265;51.664;7.626;2024-03-23T02:40:38;3.65;;;3.35;;
2362;SDS011;64265;51.664;7.626;2024-03-23T02:43:03;4.60;;;4.20;;
2362;SDS011;64265;51.664;7.626;2024-03-23T02:45:30;4.07;;;3.78;;
2362;SDS011;64265;51.664;7.626;2024-03-23T02:47:56;3.27;;;2.97;;
2362;SDS011;64265;51.664;7.626;2024-03-23T02:50:23;4.35;;;4.05;;
2362;SDS011;64265;51.664;7.626;2024-03-23T02:52:48;3.57;;;3.27;;
2362;SDS011;64265;51.664;7.626;2024-03-23T02:55:15;4.10;;;3.80;;
2362;SDS011;64265;51.664;7.626;2024-03-23T02:57:42;4.67;;;4.17;;
2362;SDS011;64265;51.664;7.626;2024-03-23T03:00:09;3.90;;;3.60;;
2362;SDS011;64265;51.664;7.626;2024-03-23T03:02:36;3.83;;;3.53;;
2362;SDS011;64265;51.664;7.626;2024-03-23T03:05:03;4.10;;;3.80;;
2362;SDS011;64265;51.664;7.626;2024-03-23T03:07:30;4.82;;;4.25;;
2362;SDS011;64265;51.664;7.626;2024-03-23T03:09:56;3.33;;;3.03;;
2362;SDS011;64265;51.664;7.626;2024-03-23T03:12:22;4.07;;;3.77;;
2362;SDS011;64265;51.664;7.626;2024-03-23T03:14:50;3.17;;;2.80;;
2362;SDS011;64265;51.664;7.626;2024-03-23T03:17:16;4.05;;;3.75;;
2362;SDS011;64265;51.664;7.626;2024-03-23T03:19:44;3.72;;;3.42;;
2362;SDS011;64265;51.664;7.626;2024-03-23T03:22:10;3.88;;;3.47;;
2362;SDS011;64265;51.664;7.626;2024-03-23T03:24:37;4.18;;;3.88;;
2362;SDS011;64265;51.664;7.626;2024-03-23T03:27:02;3.50;;;3.20;;
2362;SDS011;64265;51.664;7.626;2024-03-23T03:29:29;4.38;;;3.83;;
2362;SDS011;64265;51.664;7.626;2024-03-23T03:32:01;4.28;;;3.50;;
2362;SDS011;64265;51.664;7.626;2024-03-23T03:34:28;3.70;;;3.40;;
2362;SDS011;64265;51.664;7.626;2024-03-23T03:36:54;3.17;;;2.97;;
2362;SDS011;64265;51.664;7.626;2024-03-23T03:39:21;3.90;;;3.50;;
2362;SDS011;64265;51.664;7.626;2024-03-23T03:41:47;4.20;;;3.80;;
2362;SDS011;64265;51.664;7.626;2024-03-23T03:44:14;3.95;;;3.55;;
2362;SDS011;64265;51.664;7.626;2024-03-23T03:46:40;2.80;;;2.60;;
2362;SDS011;64265;51.664;7.626;2024-03-23T03:49:08;3.72;;;3.42;;
2362;SDS011;64265;51.664;7.626;2024-03-23T03:51:34;4.38;;;3.88;;
2362;SDS011;64265;51.664;7.626;2024-03-23T03:54:00;4.10;;;3.78;;
2362;SDS011;64265;51.664;7.626;2024-03-23T03:56:27;5.30;;;3.70;;
2362;SDS011;64265;51.664;7.626;2024-03-23T03:58:54;3.10;;;2.80;;
2362;SDS011;64265;51.664;7.626;2024-03-23T04:01:19;3.77;;;3.47;;
2362;SDS011;64265;51.664;7.626;2024-03-23T04:03:46;3.63;;;3.30;;
2362;SDS011;64265;51.664;7.626;2024-03-23T04:06:13;3.80;;;3.40;;
2362;SDS011;64265;51.664;7.626;2024-03-23T04:08:45;3.63;;;3.30;;
2362;SDS011;64265;51.664;7.626;2024-03-23T04:11:10;3.40;;;3.20;;
2362;SDS011;64265;51.664;7.626;2024-03-23T04:13:37;3.13;;;2.92;;
2362;SDS011;64265;51.664;7.626;2024-03-23T04:16:03;3.63;;;3.33;;
2362;SDS011;64265;51.664;7.626;2024-03-23T04:18:30;4.93;;;4.43;;
2362;SDS011;64265;51.664;7.626;2024-03-23T04:20:56;3.47;;;3.17;;
2362;SDS011;64265;51.664;7.626;2024-03-23T04:23:24;4.13;;;3.78;;
2362;SDS011;64265;51.664;7.626;2024-03-23T04:25:50;3.80;;;3.22;;
2362;SDS011;64265;51.664;7.626;2024-03-23T04:28:18;3.20;;;2.90;;
2362;SDS011;64265;51.664;7.626;2024-03-23T04:30:44;3.33;;;3.13;;
2362;SDS011;64265;51.664;7.626;2024-03-23T04:33:10;3.90;;;3.53;;
2362;SDS011;64265;51.664;7.626;2024-03-23T04:35:36;3.33;;;3.03;;
2362;SDS011;64265;51.664;7.626;2024-03-23T04:38:03;3.03;;;2.83;;
2362;SDS011;64265;51.664;7.626;2024-03-23T04:40:31;3.00;;;2.78;;
2362;SDS011;64265;51.664;7.626;2024-03-23T04:42:58;3.20;;;2.90;;
2362;SDS011;64265;51.664;7.626;2024-03-23T04:45:25;3.15;;;2.92;;
2362;SDS011;64265;51.664;7.626;2024-03-23T04:47:52;2.92;;;2.72;;
2362;SDS011;64265;51.664;7.626;2024-03-23T04:50:19;3.47;;;3.17;;
2362;SDS011;64265;51.664;7.626;2024-03-23T04:52:45;3.60;;;3.30;;
2362;SDS011;64265;51.664;7.626;2024-03-23T04:55:12;2.83;;;2.63;;
2362;SDS011;64265;51.664;7.626;2024-03-23T04:57:40;3.53;;;3.33;;
2362;SDS011;64265;51.664;7.626;2024-03-23T05:00:06;3.17;;;2.90;;
2362;SDS011;64265;51.664;7.626;2024-03-23T05:02:42;3.30;;;3.10;;
2362;SDS011;64265;51.664;7.626;2024-03-23T05:05:09;2.80;;;2.60;;
2362;SDS011;64265;51.664;7.626;2024-03-23T05:07:35;3.67;;;3.37;;
2362;SDS011;64265;51.664;7.626;2024-03-23T05:10:02;2.92;;;2.70;;
2362;SDS011;64265;51.664;7.626;2024-03-23T05:12:28;2.95;;;2.75;;
2362;SDS011;64265;51.664;7.626;2024-03-23T05:14:56;3.15;;;2.95;;
2362;SDS011;64265;51.664;7.626;2024-03-23T05:17:22;3.33;;;3.13;;
2362;SDS011;64265;51.664;7.626;2024-03-23T05:19:49;2.70;;;2.50;;
2362;SDS011;64265;51.664;7.626;2024-03-23T05:22:14;2.97;;;2.50;;
2362;SDS011;64265;51.664;7.626;2024-03-23T05:24:41;2.55;;;2.35;;
2362;SDS011;64265;51.664;7.626;2024-03-23T05:27:07;3.37;;;3.07;;
2362;SDS011;64265;51.664;7.626;2024-03-23T05:29:33;2.92;;;2.72;;
2362;SDS011;64265;51.664;7.626;2024-03-23T05:32:00;2.87;;;2.57;;
2362;SDS011;64265;51.664;7.626;2024-03-23T05:34:27;3.45;;;3.15;;
2362;SDS011;64265;51.664;7.626;2024-03-23T05:36:54;3.03;;;2.80;;
2362;SDS011;64265;51.664;7.626;2024-03-23T05:39:20;3.17;;;2.88;;
2362;SDS011;64265;51.664;7.626;2024-03-23T05:41:47;3.05;;;2.85;;
2362;SDS011;64265;51.664;7.626;2024-03-23T05:44:14;4.03;;;3.30;;
2362;SDS011;64265;51.664;7.626;2024-03-23T05:46:40;2.60;;;2.40;;
2362;SDS011;64265;51.664;7.626;2024-03-23T05:49:08;3.20;;;2.90;;
2362;SDS011;64265;51.664;7.626;2024-03-23T05:51:34;2.53;;;2.33;;
2362;SDS011;64265;51.664;7.626;2024-03-23T05:54:01;3.03;;;2.83;;
2362;SDS011;64265;51.664;7.626;2024-03-23T05:56:26;3.13;;;2.93;;
2362;SDS011;64265;51.664;7.626;2024-03-23T05:58:53;4.22;;;3.05;;
2362;SDS011;64265;51.664;7.626;2024-03-23T06:01:20;3.20;;;2.95;;
2362;SDS011;64265;51.664;7.626;2024-03-23T06:03:45;3.07;;;2.87;;
2362;SDS011;64265;51.664;7.626;2024-03-23T06:06:13;3.13;;;2.83;;
2362;SDS011;64265;51.664;7.626;2024-03-23T06:08:39;3.33;;;3.03;;
2362;SDS011;64265;51.664;7.626;2024-03-23T06:11:06;3.30;;;3.10;;
2362;SDS011;64265;51.664;7.626;2024-03-23T06:13:32;3.87;;;3.20;;
2362;SDS011;64265;51.664;7.626;2024-03-23T06:16:00;2.83;;;2.63;;
2362;SDS011;64265;51.664;7.626;2024-03-23T06:18:25;3.20;;;2.90;;
2362;SDS011;64265;51.664;7.626;2024-03-23T06:20:52;3.28;;;2.97;;
2362;SDS011;64265;51.664;7.626;2024-03-23T06:23:19;3.00;;;2.80;;
2362;SDS011;64265;51.664;7.626;2024-03-23T06:25:46;2.78;;;2.50;;
2362;SDS011;64265;51.664;7.626;2024-03-23T06:28:12;2.67;;;2.47;;
2362;SDS011;64265;51.664;7.626;2024-03-23T06:30:39;2.88;;;2.67;;
2362;SDS011;64265;51.664;7.626;2024-03-23T06:33:04;2.40;;;2.13;;
2362;SDS011;64265;51.664;7.626;2024-03-23T06:35:31;2.92;;;2.60;;
2362;SDS011;64265;51.664;7.626;2024-03-23T06:37:57;2.60;;;2.40;;
2362;SDS011;64265;51.664;7.626;2024-03-23T06:40:25;3.10;;;2.67;;
2362;SDS011;64265;51.664;7.626;2024-03-23T06:42:51;2.67;;;2.47;;
2362;SDS011;64265;51.664;7.626;2024-03-23T06:45:18;3.33;;;2.50;;
2362;SDS011;64265;51.664;7.626;2024-03-23T06:47:48;2.95;;;2.65;;
2362;SDS011;64265;51.664;7.626;2024-03-23T06:50:14;2.83;;;2.63;;
2362;SDS011;64265;51.664;7.626;2024-03-23T06:52:40;2.60;;;2.40;;
2362;SDS011;64265;51.664;7.626;2024-03-23T06:55:07;2.42;;;2.17;;
2362;SDS011;64265;51.664;7.626;2024-03-23T06:57:35;2.70;;;2.38;;
2362;SDS011;64265;51.664;7.626;2024-03-23T07:00:01;3.53;;;3.13;;
2362;SDS011;64265;51.664;7.626;2024-03-23T07:02:27;3.05;;;2.47;;
2362;SDS011;64265;51.664;7.626;2024-03-23T07:04:54;2.70;;;2.50;;
2362;SDS011;64265;51.664;7.626;2024-03-23T07:07:20;2.47;;;2.27;;
2362;SDS011;64265;51.664;7.626;2024-03-23T07:09:47;4.20;;;3.10;;
2362;SDS011;64265;51.664;7.626;2024-03-23T07:12:13;2.60;;;2.40;;
2362;SDS011;64265;51.664;7.626;2024-03-23T07:14:41;2.00;;;1.80;;
2362;SDS011;64265;51.664;7.626;2024-03-23T07:17:07;2.85;;;2.65;;
2362;SDS011;64265;51.664;7.626;2024-03-23T07:19:34;2.42;;;1.83;;
2362;SDS011;64265;51.664;7.626;2024-03-23T07:21:59;2.60;;;2.40;;
2362;SDS011;64265;51.664;7.626;2024-03-23T07:24:26;3.35;;;2.47;;
2362;SDS011;64265;51.664;7.626;2024-03-23T07:26:52;2.33;;;2.13;;
2362;SDS011;64265;51.664;7.626;2024-03-23T07:29:19;2.60;;;2.17;;
2362;SDS011;64265;51.664;7.626;2024-03-23T07:31:46;2.50;;;2.30;;
2362;SDS011;64265;51.664;7.626;2024-03-23T07:34:13;1.77;;;1.65;;
2362;SDS011;64265;51.664;7.626;2024-03-23T07:36:39;2.30;;;1.87;;
2362;SDS011;64265;51.664;7.626;2024-03-23T07:39:05;2.35;;;2.15;;
2362;SDS011;64265;51.664;7.626;2024-03-23T07:41:32;2.60;;;2.40;;
2362;SDS011;64265;51.664;7.626;2024-03-23T07:44:00;2.28;;;1.70;;
2362;SDS011;64265;51.664;7.626;2024-03-23T07:46:26;4.33;;;1.93;;
2362;SDS011;64265;51.664;7.626;2024-03-23T07:48:54;2.10;;;1.90;;
2362;SDS011;64265;51.664;7.626;2024-03-23T07:51:20;2.90;;;1.95;;
2362;SDS011;64265;51.664;7.626;2024-03-23T07:53:48;1.90;;;1.77;;
2362;SDS011;64265;51.664;7.626;2024-03-23T07:56:14;4.40;;;2.20;;
2362;SDS011;64265;51.664;7.626;2024-03-23T07:58:43;2.20;;;1.80;;
2362;SDS011;64265;51.664;7.626;2024-03-23T08:01:10;2.10;;;1.90;;
2362;SDS011;64265;51.664;7.626;2024-03-23T08:03:38;6.10;;;2.53;;
2362;SDS011;64265;51.664;7.626;2024-03-23T08:06:10;2.15;;;2.03;;
2362;SDS011;64265;51.664;7.626;2024-03-23T08:08:39;2.30;;;2.10;;
2362;SDS011;64265;51.664;7.626;2024-03-23T08:11:05;2.05;;;1.85;;
2362;SDS011;64265;51.664;7.626;2024-03-23T08:13:32;2.60;;;2.40;;
2362;SDS011;64265;51.664;7.626;2024-03-23T08:15:58;2.78;;;2.33;;
2362;SDS011;64265;51.664;7.626;2024-03-23T08:18:25;1.80;;;1.70;;
2362;SDS011;64265;51.664;7.626;2024-03-23T08:20:55;2.20;;;2.00;;
2362;SDS011;64265;51.664;7.626;2024-03-23T08:23:24;1.83;;;1.60;;
2362;SDS011;64265;51.664;7.626;2024-03-23T08:25:50;2.10;;;1.83;;
2362;SDS011;64265;51.664;7.626;2024-03-23T08:28:17;2.30;;;2.10;;
2362;SDS011;64265;51.664;7.626;2024-03-23T08:30:43;3.73;;;1.70;;
2362;SDS011;64265;51.664;7.626;2024-03-23T08:33:09;2.08;;;1.85;;
2362;SDS011;64265;51.664;7.626;2024-03-23T08:35:35;2.07;;;1.87;;
2362;SDS011;64265;51.664;7.626;2024-03-23T08:38:02;1.92;;;1.73;;
2362;SDS011;64265;51.664;7.626;2024-03-23T08:40:29;5.77;;;1.87;;
2362;SDS011;64265;51.664;7.626;2024-03-23T08:42:56;2.13;;;1.92;;
2362;SDS011;64265;51.664;7.626;2024-03-23T08:45:22;2.73;;;1.70;;
2362;SDS011;64265;51.664;7.626;2024-03-23T08:47:48;2.10;;;1.95;;
2362;SDS011;64265;51.664;7.626;2024-03-23T08:50:15;2.20;;;2.00;;
2362;SDS011;64265;51.664;7.626;2024-03-23T08:52:41;2.03;;;1.83;;
2362;SDS011;64265;51.664;7.626;2024-03-23T08:55:07;1.70;;;1.60;;
2362;SDS011;64265;51.664;7.626;2024-03-23T08:57:36;2.40;;;2.20;;
2362;SDS011;64265;51.664;7.626;2024-03-23T09:00:02;2.37;;;2.13;;
2362;SDS011;64265;51.664;7.626;2024-03-23T09:02:31;2.50;;;1.85;;
2362;SDS011;64265;51.664;7.626;2024-03-23T09:04:56;1.60;;;1.50;;
2362;SDS011;64265;51.664;7.626;2024-03-23T09:07:29;1.93;;;1.73;;
2362;SDS011;64265;51.664;7.626;2024-03-23T09:09:55;3.63;;;2.07;;
2362;SDS011;64265;51.664;7.626;2024-03-23T09:12:21;5.10;;;1.63;;
2362;SDS011;64265;51.664;7.626;2024-03-23T09:14:49;2.53;;;1.60;;
2362;SDS011;64265;51.664;7.626;2024-03-23T09:17:15;2.23;;;1.70;;
2362;SDS011;64265;51.664;7.626;2024-03-23T09:19:41;1.77;;;1.67;;
2362;SDS011;64265;51.664;7.626;2024-03-23T09:22:08;1.80;;;1.70;;
2362;SDS011;64265;51.664;7.626;2024-03-23T09:24:33;2.23;;;1.70;;
2362;SDS011;64265;51.664;7.626;2024-03-23T09:27:00;1.70;;;1.60;;
2362;SDS011;64265;51.664;7.626;2024-03-23T09:29:26;2.03;;;1.83;;
2362;SDS011;64265;51.664;7.626;2024-03-23T09:31:54;1.80;;;1.60;;
2362;SDS011;64265;51.664;7.626;2024-03-23T09:34:20;2.10;;;1.90;;
2362;SDS011;64265;51.664;7.626;2024-03-23T09:36:47;2.00;;;1.80;;
2362;SDS011;64265;51.664;7.626;2024-03-23T09:39:16;2.30;;;1.60;;
2362;SDS011;64265;51.664;7.626;2024-03-23T09:41:42;2.70;;;1.63;;
2362;SDS011;64265;51.664;7.626;2024-03-23T09:44:08;1.63;;;1.53;;
2362;SDS011;64265;51.664;7.626;2024-03-23T09:46:35;2.20;;;1.93;;
2362;SDS011;64265;51.664;7.626;2024-03-23T09:49:02;1.70;;;1.60;;
2362;SDS011;64265;51.664;7.626;2024-03-23T09:51:30;7.73;;;2.40;;
2362;SDS011;64265;51.664;7.626;2024-03-23T09:53:55;4.20;;;2.00;;
2362;SDS011;64265;51.664;7.626;2024-03-23T09:56:23;2.50;;;2.17;;
2362;SDS011;64265;51.664;7.626;2024-03-23T09:58:49;2.00;;;1.53;;
2362;SDS011;64265;51.664;7.626;2024-03-23T10:01:15;2.50;;;2.00;;
2362;SDS011;64265;51.664;7.626;2024-03-23T10:03:42;4.90;;;2.20;;
2362;SDS011;64265;51.664;7.626;2024-03-23T10:06:11;3.30;;;1.90;;
2362;SDS011;64265;51.664;7.626;2024-03-23T10:08:36;1.73;;;1.53;;
2362;SDS011;64265;51.664;7.626;2024-03-23T10:11:12;2.00;;;1.77;;
2362;SDS011;64265;51.664;7.626;2024-03-23T10:13:40;4.23;;;1.70;;
2362;SDS011;64265;51.664;7.626;2024-03-23T10:16:07;4.47;;;2.00;;
2362;SDS011;64265;51.664;7.626;2024-03-23T10:18:36;3.30;;;2.00;;
2362;SDS011;64265;51.664;7.626;2024-03-23T10:21:07;1.90;;;1.50;;
2362;SDS011;64265;51.664;7.626;2024-03-23T10:23:35;1.93;;;1.50;;
2362;SDS011;64265;51.664;7.626;2024-03-23T10:26:18;1.90;;;1.33;;
2362;SDS011;64265;51.664;7.626;2024-03-23T10:28:53;2.00;;;1.40;;
2362;SDS011;64265;51.664;7.626;2024-03-23T10:31:22;4.00;;;1.90;;
2362;SDS011;64265;51.664;7.626;2024-03-23T10:33:47;1.67;;;1.50;;
2362;SDS011;64265;51.664;7.626;2024-03-23T10:36:15;2.07;;;1.57;;
2362;SDS011;64265;51.664;7.626;2024-03-23T10:38:42;2.50;;;2.13;;
2362;SDS011;64265;51.664;7.626;2024-03-23T10:41:10;3.50;;;1.63;;
2362;SDS011;64265;51.664;7.626;2024-03-23T10:43:37;2.40;;;1.60;;
2362;SDS011;64265;51.664;7.626;2024-03-23T10:46:04;3.23;;;1.73;;
2362;SDS011;64265;51.664;7.626;2024-03-23T10:48:30;1.80;;;1.43;;
2362;SDS011;64265;51.664;7.626;2024-03-23T10:50:58;2.20;;;1.30;;
2362;SDS011;64265;51.664;7.626;2024-03-23T10:53:25;2.00;;;1.50;;
2362;SDS011;64265;51.664;7.626;2024-03-23T10:55:54;2.57;;;1.70;;
2362;SDS011;64265;51.664;7.626;2024-03-23T10:58:21;2.03;;;1.60;;
2362;SDS011;64265;51.664;7.626;2024-03-23T11:00:50;3.67;;;1.97;;
2362;SDS011;64265;51.664;7.626;2024-03-23T11:03:35;2.20;;;1.40;;
2362;SDS011;64265;51.664;7.626;2024-03-23T11:06:03;1.27;;;1.13;;
2362;SDS011;64265;51.664;7.626;2024-03-23T11:08:30;1.97;;;1.70;;
2362;SDS011;64265;51.664;7.626;2024-03-23T11:11:15;2.03;;;1.40;;
2362;SDS011;64265;51.664;7.626;2024-03-23T11:13:43;3.03;;;1.80;;
2362;SDS011;64265;51.664;7.626;2024-03-23T11:16:14;2.00;;;1.63;;
2362;SDS011;64265;51.664;7.626;2024-03-23T11:18:40;2.60;;;1.43;;
2362;SDS011;64265;51.664;7.626;2024-03-23T11:21:08;2.70;;;1.30;;
2362;SDS011;64265;51.664;7.626;2024-03-23T11:23:34;1.73;;;1.60;;
2362;SDS011;64265;51.664;7.626;2024-03-23T11:26:01;2.10;;;1.43;;
2362;SDS011;64265;51.664;7.626;2024-03-23T11:28:29;2.83;;;2.00;;
2362;SDS011;64265;51.664;7.626;2024-03-23T11:30:56;1.67;;;1.57;;
2362;SDS011;64265;51.664;7.626;2024-03-23T11:33:22;1.67;;;1.47;;
2362;SDS011;64265;51.664;7.626;2024-03-23T11:35:49;1.63;;;1.20;;
2362;SDS011;64265;51.664;7.626;2024-03-23T11:38:16;2.20;;;1.47;;
2362;SDS011;64265;51.664;7.626;2024-03-23T11:40:44;2.03;;;1.43;;
2362;SDS011;64265;51.664;7.626;2024-03-23T11:43:11;1.47;;;1.37;;
2362;SDS011;64265;51.664;7.626;2024-03-23T11:45:41;1.90;;;1.20;;
2362;SDS011;64265;51.664;7.626;2024-03-23T11:48:09;2.70;;;1.50;;
2362;SDS011;64265;51.664;7.626;2024-03-23T11:50:37;2.17;;;1.70;;
2362;SDS011;64265;51.664;7.626;2024-03-23T11:53:12;2.10;;;1.50;;
2362;SDS011;64265;51.664;7.626;2024-03-23T11:55:41;2.17;;;1.40;;
2362;SDS011;64265;51.664;7.626;2024-03-23T11:58:08;1.57;;;1.43;;
2362;SDS011;64265;51.664;7.626;2024-03-23T12:00:35;1.47;;;1.10;;
2362;SDS011;64265;51.664;7.626;2024-03-23T12:03:02;1.90;;;1.70;;
2362;SDS011;64265;51.664;7.626;2024-03-23T12:05:29;2.17;;;1.43;;
2362;SDS011;64265;51.664;7.626;2024-03-23T12:07:56;1.97;;;1.13;;
2362;SDS011;64265;51.664;7.626;2024-03-23T12:10:43;2.13;;;1.60;;
2362;SDS011;64265;51.664;7.626;2024-03-23T12:13:10;1.63;;;1.30;;
2362;SDS011;64265;51.664;7.626;2024-03-23T12:15:36;1.77;;;1.33;;
2362;SDS011;64265;51.664;7.626;2024-03-23T12:18:10;2.90;;;1.80;;
2362;SDS011;64265;51.664;7.626;2024-03-23T12:20:37;1.30;;;1.13;;
2362;SDS011;64265;51.664;7.626;2024-03-23T12:23:09;1.87;;;1.37;;
2362;SDS011;64265;51.664;7.626;2024-03-23T12:25:37;1.40;;;1.00;;
2362;SDS011;64265;51.664;7.626;2024-03-23T12:28:04;4.03;;;1.20;;
2362;SDS011;64265;51.664;7.626;2024-03-23T12:30:32;2.00;;;1.40;;
2362;SDS011;64265;51.664;7.626;2024-03-23T12:32:59;2.03;;;1.47;;
2362;SDS011;64265;51.664;7.626;2024-03-23T12:35:27;1.73;;;1.63;;
2362;SDS011;64265;51.664;7.626;2024-03-23T12:37:53;1.67;;;1.20;;
2362;SDS011;64265;51.664;7.626;2024-03-23T12:40:19;1.50;;;1.20;;
2362;SDS011;64265;51.664;7.626;2024-03-23T12:42:45;1.40;;;1.27;;
2362;SDS011;64265;51.664;7.626;2024-03-23T12:45:12;1.50;;;1.17;;
2362;SDS011;64265;51.664;7.626;2024-03-23T12:47:37;1.60;;;1.50;;
2362;SDS011;64265;51.664;7.626;2024-03-23T12:50:04;2.00;;;1.17;;
2362;SDS011;64265;51.664;7.626;2024-03-23T12:52:32;1.50;;;1.20;;
2362;SDS011;64265;51.664;7.626;2024-03-23T12:54:59;1.53;;;1.33;;
2362;SDS011;64265;51.664;7.626;2024-03-23T12:57:25;1.33;;;1.10;;
2362;SDS011;64265;51.664;7.626;2024-03-23T12:59:52;1.67;;;1.00;;
2362;SDS011;64265;51.664;7.626;2024-03-23T13:02:18;1.63;;;0.90;;
2362;SDS011;64265;51.664;7.626;2024-03-23T13:04:46;1.50;;;1.00;;
2362;SDS011;64265;51.664;7.626;2024-03-23T13:07:14;1.80;;;1.30;;
2362;SDS011;64265;51.664;7.626;2024-03-23T13:09:42;1.50;;;1.20;;
2362;SDS011;64265;51.664;7.626;2024-03-23T13:12:08;2.43;;;1.70;;
2362;SDS011;64265;51.664;7.626;2024-03-23T13:14:35;2.03;;;1.50;;
2362;SDS011;64265;51.664;7.626;2024-03-23T13:17:00;1.80;;;1.40;;
2362;SDS011;64265;51.664;7.626;2024-03-23T13:19:28;1.87;;;1.40;;
2362;SDS011;64265;51.664;7.626;2024-03-23T13:21:56;1.33;;;1.00;;
2362;SDS011;64265;51.664;7.626;2024-03-23T13:24:23;1.63;;;1.30;;
2362;SDS011;64265;51.664;7.626;2024-03-23T13:26:50;1.30;;;1.17;;
2362;SDS011;64265;51.664;7.626;2024-03-23T13:29:18;11.80;;;3.20;;
2362;SDS011;64265;51.664;7.626;2024-03-23T13:31:44;2.10;;;1.30;;
2362;SDS011;64265;51.664;7.626;2024-03-23T13:34:11;3.40;;;1.75;;
2362;SDS011;64265;51.664;7.626;2024-03-23T13:36:39;3.58;;;1.50;;
2362;SDS011;64265;51.664;7.626;2024-03-23T13:39:07;4.95;;;1.65;;
2362;SDS011;64265;51.664;7.626;2024-03-23T13:41:36;4.85;;;1.75;;
2362;SDS011;64265;51.664;7.626;2024-03-23T13:44:05;2.22;;;1.30;;
2362;SDS011;64265;51.664;7.626;2024-03-23T13:46:32;3.15;;;1.40;;
2362;SDS011;64265;51.664;7.626;2024-03-23T13:48:58;2.25;;;1.10;;
2362;SDS011;64265;51.664;7.626;2024-03-23T13:51:24;2.43;;;1.63;;
2362;SDS011;64265;51.664;7.626;2024-03-23T13:53:52;2.30;;;1.25;;
2362;SDS011;64265;51.664;7.626;2024-03-23T13:56:19;2.03;;;1.33;;
2362;SDS011;64265;51.664;7.626;2024-03-23T13:58:46;4.00;;;1.10;;
2362;SDS011;64265;51.664;7.626;2024-03-23T14:01:13;1.60;;;1.20;;
2362;SDS011;64265;51.664;7.626;2024-03-23T14:03:40;4.27;;;1.43;;
2362;SDS011;64265;51.664;7.626;2024-03-23T14:06:06;1.57;;;1.20;;
2362;SDS011;64265;51.664;7.626;2024-03-23T14:08:33;1.83;;;1.00;;
2362;SDS011;64265;51.664;7.626;2024-03-23T14:11:01;2.70;;;1.17;;
2362;SDS011;64265;51.664;7.626;2024-03-23T14:13:29;1.67;;;1.27;;
2362;SDS011;64265;51.664;7.626;2024-03-23T14:15:56;1.50;;;1.00;;
2362;SDS011;64265;51.664;7.626;2024-03-23T14:18:24;1.40;;;1.10;;
2362;SDS011;64265;51.664;7.626;2024-03-23T14:20:51;1.50;;;1.10;;
2362;SDS011;64265;51.664;7.626;2024-03-23T14:23:18;1.30;;;1.10;;
2362;SDS011;64265;51.664;7.626;2024-03-23T14:25:44;2.00;;;1.50;;
2362;SDS011;64265;51.664;7.626;2024-03-23T14:28:11;1.97;;;1.30;;
2362;SDS011;64265;51.664;7.626;2024-03-23T14:30:39;2.50;;;1.33;;
2362;SDS011;64265;51.664;7.626;2024-03-23T14:33:06;1.93;;;1.27;;
2362;SDS011;64265;51.664;7.626;2024-03-23T14:35:34;1.60;;;1.10;;
2362;SDS011;64265;51.664;7.626;2024-03-23T14:38:01;1.83;;;1.43;;
2362;SDS011;64265;51.664;7.626;2024-03-23T14:40:27;1.50;;;1.30;;
2362;SDS011;64265;51.664;7.626;2024-03-23T14:42:54;1.40;;;1.20;;
2362;SDS011;64265;51.664;7.626;2024-03-23T14:45:20;1.37;;;1.17;;
2362;SDS011;64265;51.664;7.626;2024-03-23T14:47:47;1.80;;;1.43;;
2362;SDS011;64265;51.664;7.626;2024-03-23T14:50:13;2.03;;;1.40;;
2362;SDS011;64265;51.664;7.626;2024-03-23T14:52:42;1.50;;;1.10;;
2362;SDS011;64265;51.664;7.626;2024-03-23T14:55:09;1.77;;;1.40;;
2362;SDS011;64265;51.664;7.626;2024-03-23T14:57:36;1.90;;;1.17;;
2362;SDS011;64265;51.664;7.626;2024-03-23T15:00:04;1.60;;;1.40;;
2362;SDS011;64265;51.664;7.626;2024-03-23T15:02:33;1.37;;;1.07;;
2362;SDS011;64265;51.664;7.626;2024-03-23T15:04:59;3.00;;;1.23;;
2362;SDS011;64265;51.664;7.626;2024-03-23T15:07:29;1.37;;;0.93;;
2362;SDS011;64265;51.664;7.626;2024-03-23T15:09:56;1.20;;;1.00;;
2362;SDS011;64265;51.664;7.626;2024-03-23T15:12:23;1.60;;;1.30;;
2362;SDS011;64265;51.664;7.626;2024-03-23T15:14:48;2.20;;;1.23;;
2362;SDS011;64265;51.664;7.626;2024-03-23T15:17:15;1.30;;;1.00;;
2362;SDS011;64265;51.664;7.626;2024-03-23T15:19:41;1.47;;;0.97;;
2362;SDS011;64265;51.664;7.626;2024-03-23T15:22:08;1.40;;;1.20;;
2362;SDS011;64265;51.664;7.626;2024-03-23T15:24:34;1.77;;;1.00;;
2362;SDS011;64265;51.664;7.626;2024-03-23T15:27:03;1.80;;;0.90;;
2362;SDS011;64265;51.664;7.626;2024-03-23T15:29:29;1.30;;;1.00;;
2362;SDS011;64265;51.664;7.626;2024-03-23T15:31:56;1.20;;;0.80;;
2362;SDS011;64265;51.664;7.626;2024-03-23T15:34:21;3.73;;;1.00;;
2362;SDS011;64265;51.664;7.626;2024-03-23T15:36:49;2.10;;;1.00;;
2362;SDS011;64265;51.664;7.626;2024-03-23T15:39:15;2.13;;;1.37;;
2362;SDS011;64265;51.664;7.626;2024-03-23T15:41:43;1.50;;;1.17;;
2362;SDS011;64265;51.664;7.626;2024-03-23T15:44:11;1.20;;;0.90;;
2362;SDS011;64265;51.664;7.626;2024-03-23T15:46:38;2.27;;;0.90;;
2362;SDS011;64265;51.664;7.626;2024-03-23T15:49:03;1.60;;;1.40;;
2362;SDS011;64265;51.664;7.626;2024-03-23T15:51:30;2.33;;;1.00;;
2362;SDS011;64265;51.664;7.626;2024-03-23T15:53:58;1.30;;;1.00;;